sensor_id;sensor_type;location;lat;lon;timestamp;pressure;altitude;pressure_sealevel;temperature;humidity
13553;BME280;6847;48.830;9.116;2023-08-20T00:01:57;98234.16;;;26.65;52.23
13553;BME280;6847;48.830;9.116;2023-08-20T00:04:26;98238.25;;;26.71;52.31
13553;BME280;6847;48.830;9.116;2023-08-20T00:06:54;98205.34;;;26.47;51.86
13553;BME280;6847;48.830;9.116;2023-08-20T00:09:22;98249.34;;;26.71;52.05
13553;BME280;6847;48.830;9.116;2023-08-20T00:11:50;98153.94;;;26.07;52.40
13553;BME280;6847;48.830;9.116;2023-08-20T00:14:18;98252.13;;;26.71;52.60
13553;BME280;6847;48.830;9.116;2023-08-20T00:16:50;98251.25;;;26.67;52.49
13553;BME280;6847;48.830;9.116;2023-08-20T00:19:18;98238.88;;;26.61;52.24
13553;BME280;6847;48.830;9.116;2023-08-20T00:21:45;98229.25;;;26.55;52.55
13553;BME280;6847;48.830;9.116;2023-08-20T00:24:12;98256.19;;;26.77;52.18
13553;BME280;6847;48.830;9.116;2023-08-20T00:26:42;98250.63;;;26.77;52.39
13553;BME280;6847;48.830;9.116;2023-08-20T00:29:09;98244.59;;;26.72;52.42
13553;BME280;6847;48.830;9.116;2023-08-20T00:31:36;98255.00;;;26.78;52.64
13553;BME280;6847;48.830;9.116;2023-08-20T00:34:04;98264.50;;;26.77;52.86
13553;BME280;6847;48.830;9.116;2023-08-20T00:36:30;98260.56;;;26.78;52.94
13553;BME280;6847;48.830;9.116;2023-08-20T00:38:57;98262.53;;;26.78;52.70
13553;BME280;6847;48.830;9.116;2023-08-20T00:41:24;98265.25;;;26.74;52.72
13553;BME280;6847;48.830;9.116;2023-08-20T00:43:51;98262.81;;;26.69;52.96
13553;BME280;6847;48.830;9.116;2023-08-20T00:46:17;98260.78;;;26.66;53.14
13553;BME280;6847;48.830;9.116;2023-08-20T00:48:44;98266.22;;;26.59;53.56
13553;BME280;6847;48.830;9.116;2023-08-20T00:51:13;98257.81;;;26.56;53.12
13553;BME280;6847;48.830;9.116;2023-08-20T00:53:39;98264.97;;;26.53;53.23
13553;BME280;6847;48.830;9.116;2023-08-20T00:56:06;98262.91;;;26.50;53.29
13553;BME280;6847;48.830;9.116;2023-08-20T00:58:33;98261.69;;;26.47;53.61
13553;BME280;6847;48.830;9.116;2023-08-20T01:00:59;98260.44;;;26.45;53.72
13553;BME280;6847;48.830;9.116;2023-08-20T01:03:26;98267.19;;;26.44;53.50
13553;BME280;6847;48.830;9.116;2023-08-20T01:05:58;98263.97;;;26.42;54.03
13553;BME280;6847;48.830;9.116;2023-08-20T01:08:38;98235.84;;;26.21;53.58
13553;BME280;6847;48.830;9.116;2023-08-20T01:11:12;98261.06;;;26.35;53.75
13553;BME280;6847;48.830;9.116;2023-08-20T01:13:43;98263.06;;;26.34;54.22
13553;BME280;6847;48.830;9.116;2023-08-20T01:16:11;98245.28;;;26.16;53.99
13553;BME280;6847;48.830;9.116;2023-08-20T01:18:38;98266.94;;;26.30;53.75
13553;BME280;6847;48.830;9.116;2023-08-20T01:21:11;98222.78;;;25.98;54.19
13553;BME280;6847;48.830;9.116;2023-08-20T01:24:04;98267.69;;;26.27;54.25
13553;BME280;6847;48.830;9.116;2023-08-20T01:26:56;98267.69;;;26.27;54.05
13553;BME280;6847;48.830;9.116;2023-08-20T01:29:37;98268.41;;;26.24;54.47
13553;BME280;6847;48.830;9.116;2023-08-20T01:32:05;98269.16;;;26.21;54.54
13553;BME280;6847;48.830;9.116;2023-08-20T01:34:33;98125.63;;;25.26;54.31
13553;BME280;6847;48.830;9.116;2023-08-20T01:37:00;98277.78;;;26.15;54.69
13553;BME280;6847;48.830;9.116;2023-08-20T01:39:26;98272.97;;;26.12;54.79
13553;BME280;6847;48.830;9.116;2023-08-20T01:41:56;98271.38;;;26.11;54.44
13553;BME280;6847;48.830;9.116;2023-08-20T01:44:27;98268.16;;;26.09;54.94
13553;BME280;6847;48.830;9.116;2023-08-20T01:46:55;98274.44;;;26.06;55.06
13553;BME280;6847;48.830;9.116;2023-08-20T01:49:24;98273.59;;;26.02;54.74
13553;BME280;6847;48.830;9.116;2023-08-20T01:51:51;98276.66;;;25.97;55.10
13553;BME280;6847;48.830;9.116;2023-08-20T01:54:18;98277.44;;;25.94;54.95
13553;BME280;6847;48.830;9.116;2023-08-20T01:56:45;98273.78;;;25.90;55.17
13553;BME280;6847;48.830;9.116;2023-08-20T01:59:11;98279.25;;;25.87;55.50
13553;BME280;6847;48.830;9.116;2023-08-20T02:01:38;98238.69;;;25.59;55.05
13553;BME280;6847;48.830;9.116;2023-08-20T02:04:08;98287.53;;;25.83;55.35
13553;BME280;6847;48.830;9.116;2023-08-20T02:06:36;98281.09;;;25.79;55.36
13553;BME280;6847;48.830;9.116;2023-08-20T02:09:04;98281.47;;;25.77;55.36
13553;BME280;6847;48.830;9.116;2023-08-20T02:11:33;98284.19;;;25.74;55.32
13553;BME280;6847;48.830;9.116;2023-08-20T02:14:01;98273.81;;;25.71;55.40
13553;BME280;6847;48.830;9.116;2023-08-20T02:16:29;98260.84;;;25.56;55.55
13553;BME280;6847;48.830;9.116;2023-08-20T02:18:56;98280.84;;;25.65;55.61
13553;BME280;6847;48.830;9.116;2023-08-20T02:21:24;98279.97;;;25.61;55.64
13553;BME280;6847;48.830;9.116;2023-08-20T02:23:50;98277.06;;;25.57;55.96
13553;BME280;6847;48.830;9.116;2023-08-20T02:26:17;98196.47;;;25.04;55.88
13553;BME280;6847;48.830;9.116;2023-08-20T02:28:43;98225.25;;;25.19;55.77
13553;BME280;6847;48.830;9.116;2023-08-20T02:31:12;98276.09;;;25.46;55.87
13553;BME280;6847;48.830;9.116;2023-08-20T02:33:40;98264.78;;;25.35;56.01
13553;BME280;6847;48.830;9.116;2023-08-20T02:36:09;98277.91;;;25.38;56.22
13553;BME280;6847;48.830;9.116;2023-08-20T02:38:37;98284.19;;;25.35;56.38
13553;BME280;6847;48.830;9.116;2023-08-20T02:41:03;98210.44;;;24.92;56.25
13553;BME280;6847;48.830;9.116;2023-08-20T02:43:33;98214.34;;;24.91;56.34
13553;BME280;6847;48.830;9.116;2023-08-20T02:46:00;98214.25;;;24.88;56.21
13553;BME280;6847;48.830;9.116;2023-08-20T02:48:29;98280.53;;;25.31;56.61
13553;BME280;6847;48.830;9.116;2023-08-20T02:50:57;98282.59;;;25.34;56.48
13553;BME280;6847;48.830;9.116;2023-08-20T02:53:24;98278.47;;;25.28;56.40
13553;BME280;6847;48.830;9.116;2023-08-20T02:55:52;98273.38;;;25.30;56.72
13553;BME280;6847;48.830;9.116;2023-08-20T02:58:19;98234.59;;;25.11;56.48
13553;BME280;6847;48.830;9.116;2023-08-20T03:00:47;98261.13;;;25.31;56.78
13553;BME280;6847;48.830;9.116;2023-08-20T03:03:14;98255.13;;;25.29;56.81
13553;BME280;6847;48.830;9.116;2023-08-20T03:05:41;98253.84;;;25.23;56.73
13553;BME280;6847;48.830;9.116;2023-08-20T03:08:10;98264.22;;;25.26;56.68
13553;BME280;6847;48.830;9.116;2023-08-20T03:10:37;98242.53;;;25.13;56.67
13553;BME280;6847;48.830;9.116;2023-08-20T03:13:07;98256.16;;;25.21;56.77
13553;BME280;6847;48.830;9.116;2023-08-20T03:15:33;98236.06;;;25.05;57.05
13553;BME280;6847;48.830;9.116;2023-08-20T03:18:02;98204.66;;;24.82;57.13
13553;BME280;6847;48.830;9.116;2023-08-20T03:20:29;98265.06;;;25.11;57.26
13553;BME280;6847;48.830;9.116;2023-08-20T03:22:56;98264.63;;;25.09;57.23
13553;BME280;6847;48.830;9.116;2023-08-20T03:25:24;98259.38;;;25.04;57.24
13553;BME280;6847;48.830;9.116;2023-08-20T03:27:52;98265.38;;;25.06;57.32
13553;BME280;6847;48.830;9.116;2023-08-20T03:30:20;98264.56;;;25.05;57.42
13553;BME280;6847;48.830;9.116;2023-08-20T03:32:47;98227.16;;;24.80;57.39
13553;BME280;6847;48.830;9.116;2023-08-20T03:35:13;98256.16;;;25.02;57.32
13553;BME280;6847;48.830;9.116;2023-08-20T03:37:42;98253.31;;;24.98;57.29
13553;BME280;6847;48.830;9.116;2023-08-20T03:40:09;98221.91;;;24.75;57.51
13553;BME280;6847;48.830;9.116;2023-08-20T03:42:36;98253.75;;;25.00;57.48
13553;BME280;6847;48.830;9.116;2023-08-20T03:45:03;98215.50;;;24.71;57.45
13553;BME280;6847;48.830;9.116;2023-08-20T03:47:33;98252.50;;;24.98;57.70
13553;BME280;6847;48.830;9.116;2023-08-20T03:50:00;98257.63;;;24.96;57.82
13553;BME280;6847;48.830;9.116;2023-08-20T03:52:34;98255.56;;;24.93;57.62
13553;BME280;6847;48.830;9.116;2023-08-20T03:55:02;98256.25;;;24.90;57.68
13553;BME280;6847;48.830;9.116;2023-08-20T03:57:31;98259.31;;;24.85;57.77
13553;BME280;6847;48.830;9.116;2023-08-20T03:59:57;98257.72;;;24.84;57.91
13553;BME280;6847;48.830;9.116;2023-08-20T04:02:25;98267.19;;;24.83;57.89
13553;BME280;6847;48.830;9.116;2023-08-20T04:04:57;98269.50;;;24.81;57.97
13553;BME280;6847;48.830;9.116;2023-08-20T04:07:24;98274.19;;;24.77;58.04
13553;BME280;6847;48.830;9.116;2023-08-20T04:09:51;98274.19;;;24.77;57.99
13553;BME280;6847;48.830;9.116;2023-08-20T04:12:17;98275.34;;;24.76;58.04
13553;BME280;6847;48.830;9.116;2023-08-20T04:14:44;98272.47;;;24.72;58.11
13553;BME280;6847;48.830;9.116;2023-08-20T04:17:11;98271.69;;;24.71;58.24
13553;BME280;6847;48.830;9.116;2023-08-20T04:19:38;98272.38;;;24.68;58.14
13553;BME280;6847;48.830;9.116;2023-08-20T04:22:08;98198.66;;;24.25;58.18
13553;BME280;6847;48.830;9.116;2023-08-20T04:24:36;98270.81;;;24.67;58.28
13553;BME280;6847;48.830;9.116;2023-08-20T04:27:03;98267.59;;;24.65;58.30
13553;BME280;6847;48.830;9.116;2023-08-20T04:29:29;98277.88;;;24.65;58.18
13553;BME280;6847;48.830;9.116;2023-08-20T04:31:56;98274.28;;;24.64;58.32
13553;BME280;6847;48.830;9.116;2023-08-20T04:34:25;98278.22;;;24.63;58.46
13553;BME280;6847;48.830;9.116;2023-08-20T04:36:51;98268.16;;;24.55;58.48
13553;BME280;6847;48.830;9.116;2023-08-20T04:39:21;98272.06;;;24.54;58.63
13553;BME280;6847;48.830;9.116;2023-08-20T04:41:48;98296.00;;;24.62;58.34
13553;BME280;6847;48.830;9.116;2023-08-20T04:44:15;98294.03;;;24.63;58.44
13553;BME280;6847;48.830;9.116;2023-08-20T04:46:42;98300.72;;;24.62;58.61
13553;BME280;6847;48.830;9.116;2023-08-20T04:49:09;98303.94;;;24.64;58.66
13553;BME280;6847;48.830;9.116;2023-08-20T04:51:37;98198.75;;;23.97;58.60
13553;BME280;6847;48.830;9.116;2023-08-20T04:54:05;98313.06;;;24.64;58.66
13553;BME280;6847;48.830;9.116;2023-08-20T04:56:33;98312.59;;;24.62;58.70
13553;BME280;6847;48.830;9.116;2023-08-20T04:59:01;98316.09;;;24.59;58.72
13553;BME280;6847;48.830;9.116;2023-08-20T05:01:28;98316.53;;;24.61;58.79
13553;BME280;6847;48.830;9.116;2023-08-20T05:03:56;98313.50;;;24.66;58.78
13553;BME280;6847;48.830;9.116;2023-08-20T05:06:23;98311.97;;;24.69;58.81
13553;BME280;6847;48.830;9.116;2023-08-20T05:08:50;98317.88;;;24.67;58.94
13553;BME280;6847;48.830;9.116;2023-08-20T05:11:17;98297.75;;;24.70;59.06
13553;BME280;6847;48.830;9.116;2023-08-20T05:13:47;98289.44;;;24.70;59.21
13553;BME280;6847;48.830;9.116;2023-08-20T05:16:14;98274.09;;;24.73;59.40
13553;BME280;6847;48.830;9.116;2023-08-20T05:18:41;98244.91;;;24.60;59.22
13553;BME280;6847;48.830;9.116;2023-08-20T05:21:08;98289.03;;;24.88;59.17
13553;BME280;6847;48.830;9.116;2023-08-20T05:23:40;98301.94;;;24.96;58.96
13553;BME280;6847;48.830;9.116;2023-08-20T05:26:09;98312.00;;;25.04;58.90
13553;BME280;6847;48.830;9.116;2023-08-20T05:28:36;98305.91;;;25.14;58.75
13553;BME280;6847;48.830;9.116;2023-08-20T05:31:05;98298.19;;;25.23;59.01
13553;BME280;6847;48.830;9.116;2023-08-20T05:33:31;98263.91;;;25.12;58.95
13553;BME280;6847;48.830;9.116;2023-08-20T05:36:00;98302.56;;;25.43;58.83
13553;BME280;6847;48.830;9.116;2023-08-20T05:38:27;98293.22;;;25.52;58.55
13553;BME280;6847;48.830;9.116;2023-08-20T05:40:54;98300.53;;;25.60;58.74
13553;BME280;6847;48.830;9.116;2023-08-20T05:43:20;98304.00;;;25.57;58.47
13553;BME280;6847;48.830;9.116;2023-08-20T05:45:47;98333.31;;;25.73;58.63
13553;BME280;6847;48.830;9.116;2023-08-20T05:48:15;98317.94;;;25.79;58.60
13553;BME280;6847;48.830;9.116;2023-08-20T05:50:44;98232.25;;;25.32;58.55
13553;BME280;6847;48.830;9.116;2023-08-20T05:53:10;98321.50;;;25.99;58.84
13553;BME280;6847;48.830;9.116;2023-08-20T05:55:38;98326.00;;;26.07;58.73
13553;BME280;6847;48.830;9.116;2023-08-20T05:58:05;98287.72;;;25.94;58.47
13553;BME280;6847;48.830;9.116;2023-08-20T06:00:32;98320.22;;;26.16;58.59
13553;BME280;6847;48.830;9.116;2023-08-20T06:02:59;98328.25;;;26.21;58.73
13553;BME280;6847;48.830;9.116;2023-08-20T06:05:28;98336.09;;;26.38;58.58
13553;BME280;6847;48.830;9.116;2023-08-20T06:07:55;98344.44;;;26.61;58.68
13553;BME280;6847;48.830;9.116;2023-08-20T06:10:22;98338.50;;;26.89;58.03
13553;BME280;6847;48.830;9.116;2023-08-20T06:12:49;98337.34;;;27.16;57.82
13553;BME280;6847;48.830;9.116;2023-08-20T06:15:15;98350.41;;;27.42;57.65
13553;BME280;6847;48.830;9.116;2023-08-20T06:17:42;98350.69;;;27.63;57.65
13553;BME280;6847;48.830;9.116;2023-08-20T06:20:10;98351.72;;;27.82;57.37
13553;BME280;6847;48.830;9.116;2023-08-20T06:22:40;98350.28;;;27.95;57.31
13553;BME280;6847;48.830;9.116;2023-08-20T06:25:07;98351.63;;;28.08;57.33
13553;BME280;6847;48.830;9.116;2023-08-20T06:27:34;98358.16;;;28.23;57.20
13553;BME280;6847;48.830;9.116;2023-08-20T06:30:02;98356.31;;;28.38;57.07
13553;BME280;6847;48.830;9.116;2023-08-20T06:32:29;98354.00;;;28.47;56.88
13553;BME280;6847;48.830;9.116;2023-08-20T06:34:56;98351.31;;;28.57;56.97
13553;BME280;6847;48.830;9.116;2023-08-20T06:37:23;98363.06;;;28.77;56.96
13553;BME280;6847;48.830;9.116;2023-08-20T06:40:03;98363.91;;;28.85;56.85
13553;BME280;6847;48.830;9.116;2023-08-20T06:42:33;98330.44;;;28.81;56.65
13553;BME280;6847;48.830;9.116;2023-08-20T06:45:01;98350.53;;;29.12;56.68
13553;BME280;6847;48.830;9.116;2023-08-20T06:47:28;98350.66;;;29.29;56.56
13553;BME280;6847;48.830;9.116;2023-08-20T06:49:58;98253.88;;;28.68;56.16
13553;BME280;6847;48.830;9.116;2023-08-20T06:52:26;98261.94;;;28.80;56.66
13553;BME280;6847;48.830;9.116;2023-08-20T06:54:55;98361.97;;;29.54;56.57
13553;BME280;6847;48.830;9.116;2023-08-20T06:57:22;98367.59;;;29.61;56.52
13553;BME280;6847;48.830;9.116;2023-08-20T06:59:48;98271.66;;;29.11;55.96
13553;BME280;6847;48.830;9.116;2023-08-20T07:02:15;98363.63;;;29.69;56.17
13553;BME280;6847;48.830;9.116;2023-08-20T07:04:43;98361.25;;;29.78;56.01
13553;BME280;6847;48.830;9.116;2023-08-20T07:07:10;98367.34;;;29.95;56.23
13553;BME280;6847;48.830;9.116;2023-08-20T07:09:37;98367.78;;;30.04;55.56
13553;BME280;6847;48.830;9.116;2023-08-20T07:12:07;98364.56;;;30.02;55.73
13553;BME280;6847;48.830;9.116;2023-08-20T07:14:34;98184.31;;;28.82;55.69
13553;BME280;6847;48.830;9.116;2023-08-20T07:17:01;98217.88;;;29.03;56.04
13553;BME280;6847;48.830;9.116;2023-08-20T07:19:28;98381.38;;;30.16;55.45
13553;BME280;6847;48.830;9.116;2023-08-20T07:21:55;98383.81;;;30.35;55.51
13553;BME280;6847;48.830;9.116;2023-08-20T07:24:21;98359.03;;;30.30;55.16
13553;BME280;6847;48.830;9.116;2023-08-20T07:26:50;98390.25;;;30.68;54.98
13553;BME280;6847;48.830;9.116;2023-08-20T07:29:18;98388.25;;;30.86;55.08
13553;BME280;6847;48.830;9.116;2023-08-20T07:31:45;98391.84;;;31.04;54.69
13553;BME280;6847;48.830;9.116;2023-08-20T07:34:12;98396.25;;;31.30;54.26
13553;BME280;6847;48.830;9.116;2023-08-20T07:36:38;98398.16;;;31.65;53.79
13553;BME280;6847;48.830;9.116;2023-08-20T07:39:05;98406.44;;;32.01;53.62
13553;BME280;6847;48.830;9.116;2023-08-20T07:41:32;98410.38;;;32.17;53.36
13553;BME280;6847;48.830;9.116;2023-08-20T07:43:59;98401.97;;;32.17;53.32
13553;BME280;6847;48.830;9.116;2023-08-20T07:46:30;98404.38;;;32.12;53.67
13553;BME280;6847;48.830;9.116;2023-08-20T07:48:58;98413.97;;;32.18;53.63
13553;BME280;6847;48.830;9.116;2023-08-20T07:51:27;98254.31;;;31.34;53.24
13553;BME280;6847;48.830;9.116;2023-08-20T07:53:55;98406.25;;;32.36;53.19
13553;BME280;6847;48.830;9.116;2023-08-20T07:56:23;98412.03;;;32.77;52.30
13553;BME280;6847;48.830;9.116;2023-08-20T07:58:50;98412.34;;;33.31;51.35
13553;BME280;6847;48.830;9.116;2023-08-20T08:01:22;98361.84;;;33.99;49.12
13553;BME280;6847;48.830;9.116;2023-08-20T08:03:53;98422.09;;;35.09;48.49
13553;BME280;6847;48.830;9.116;2023-08-20T08:06:20;98425.22;;;37.09;45.48
13553;BME280;6847;48.830;9.116;2023-08-20T08:08:50;98431.34;;;39.15;42.64
13553;BME280;6847;48.830;9.116;2023-08-20T08:11:16;98440.19;;;40.08;41.83
13553;BME280;6847;48.830;9.116;2023-08-20T08:13:45;98436.38;;;39.33;43.75
13553;BME280;6847;48.830;9.116;2023-08-20T08:16:14;98436.44;;;38.82;44.78
13553;BME280;6847;48.830;9.116;2023-08-20T08:18:42;98437.69;;;39.88;43.18
13553;BME280;6847;48.830;9.116;2023-08-20T08:21:11;98446.78;;;40.48;42.67
13553;BME280;6847;48.830;9.116;2023-08-20T08:23:38;98445.88;;;41.50;41.23
13553;BME280;6847;48.830;9.116;2023-08-20T08:26:05;98451.94;;;42.76;39.61
13553;BME280;6847;48.830;9.116;2023-08-20T08:28:32;98458.97;;;43.56;38.47
13553;BME280;6847;48.830;9.116;2023-08-20T08:30:59;98323.41;;;43.45;37.52
13553;BME280;6847;48.830;9.116;2023-08-20T08:33:27;98453.66;;;45.05;37.08
13553;BME280;6847;48.830;9.116;2023-08-20T08:35:57;98350.31;;;44.91;36.41
13553;BME280;6847;48.830;9.116;2023-08-20T08:38:25;98410.75;;;45.86;35.86
13553;BME280;6847;48.830;9.116;2023-08-20T08:40:52;98455.38;;;46.18;35.67
13553;BME280;6847;48.830;9.116;2023-08-20T08:43:19;98460.47;;;46.34;35.22
13553;BME280;6847;48.830;9.116;2023-08-20T08:45:47;98457.19;;;46.41;35.60
13553;BME280;6847;48.830;9.116;2023-08-20T08:48:17;98453.09;;;46.80;34.54
13553;BME280;6847;48.830;9.116;2023-08-20T08:50:45;98461.97;;;46.04;35.53
13553;BME280;6847;48.830;9.116;2023-08-20T08:53:12;98380.22;;;44.61;36.23
13553;BME280;6847;48.830;9.116;2023-08-20T08:55:40;98445.31;;;44.57;36.55
13553;BME280;6847;48.830;9.116;2023-08-20T08:58:08;98457.75;;;44.83;36.30
13553;BME280;6847;48.830;9.116;2023-08-20T09:00:38;98396.38;;;45.14;35.04
13553;BME280;6847;48.830;9.116;2023-08-20T09:03:05;98457.63;;;46.09;33.61
13553;BME280;6847;48.830;9.116;2023-08-20T09:05:32;98460.69;;;46.57;33.31
13553;BME280;6847;48.830;9.116;2023-08-20T09:07:59;98463.00;;;47.16;32.41
13553;BME280;6847;48.830;9.116;2023-08-20T09:10:26;98471.34;;;47.67;31.68
13553;BME280;6847;48.830;9.116;2023-08-20T09:12:56;98458.97;;;48.04;31.04
13553;BME280;6847;48.830;9.116;2023-08-20T09:15:31;98376.44;;;47.82;31.08
13553;BME280;6847;48.830;9.116;2023-08-20T09:18:01;98463.84;;;47.75;31.40
13553;BME280;6847;48.830;9.116;2023-08-20T09:20:34;98462.28;;;45.86;33.75
13553;BME280;6847;48.830;9.116;2023-08-20T09:23:02;98451.63;;;44.17;35.30
13553;BME280;6847;48.830;9.116;2023-08-20T09:25:32;98449.88;;;42.76;36.61
13553;BME280;6847;48.830;9.116;2023-08-20T09:28:04;98449.03;;;41.52;38.09
13553;BME280;6847;48.830;9.116;2023-08-20T09:30:34;98438.97;;;40.61;38.62
13553;BME280;6847;48.830;9.116;2023-08-20T09:33:04;98323.91;;;39.20;38.93
13553;BME280;6847;48.830;9.116;2023-08-20T09:35:31;98435.94;;;39.47;39.22
13553;BME280;6847;48.830;9.116;2023-08-20T09:37:59;98436.47;;;39.07;38.85
13553;BME280;6847;48.830;9.116;2023-08-20T09:40:27;98417.09;;;38.55;39.31
13553;BME280;6847;48.830;9.116;2023-08-20T09:42:54;98448.69;;;38.54;39.48
13553;BME280;6847;48.830;9.116;2023-08-20T09:45:24;98315.75;;;37.58;39.08
13553;BME280;6847;48.830;9.116;2023-08-20T09:47:56;98451.13;;;38.39;39.37
13553;BME280;6847;48.830;9.116;2023-08-20T09:50:27;98408.94;;;38.03;39.03
13553;BME280;6847;48.830;9.116;2023-08-20T09:53:06;98407.34;;;37.89;39.14
13553;BME280;6847;48.830;9.116;2023-08-20T09:55:35;98388.53;;;37.83;38.87
13553;BME280;6847;48.830;9.116;2023-08-20T09:58:05;98438.69;;;38.49;38.44
13553;BME280;6847;48.830;9.116;2023-08-20T10:00:34;98441.63;;;39.21;37.59
13553;BME280;6847;48.830;9.116;2023-08-20T10:03:02;98437.66;;;40.53;35.59
13553;BME280;6847;48.830;9.116;2023-08-20T10:05:32;98374.16;;;41.82;33.46
13553;BME280;6847;48.830;9.116;2023-08-20T10:08:00;98390.28;;;43.21;32.01
13553;BME280;6847;48.830;9.116;2023-08-20T10:10:29;98358.03;;;44.06;30.91
13553;BME280;6847;48.830;9.116;2023-08-20T10:12:56;98410.19;;;45.01;30.19
13553;BME280;6847;48.830;9.116;2023-08-20T10:15:23;98433.31;;;45.78;29.82
13553;BME280;6847;48.830;9.116;2023-08-20T10:17:53;98442.34;;;46.43;29.34
13553;BME280;6847;48.830;9.116;2023-08-20T10:20:21;98413.66;;;46.69;29.12
13553;BME280;6847;48.830;9.116;2023-08-20T10:22:50;98427.56;;;47.19;28.67
13553;BME280;6847;48.830;9.116;2023-08-20T10:25:29;98380.91;;;47.24;28.11
13553;BME280;6847;48.830;9.116;2023-08-20T10:28:11;98373.03;;;47.72;27.64
13553;BME280;6847;48.830;9.116;2023-08-20T10:30:38;98454.63;;;48.47;27.50
13553;BME280;6847;48.830;9.116;2023-08-20T10:33:28;98335.22;;;47.85;27.71
13553;BME280;6847;48.830;9.116;2023-08-20T10:35:55;98454.38;;;48.79;27.72
13553;BME280;6847;48.830;9.116;2023-08-20T10:38:22;98457.22;;;48.90;27.39
13553;BME280;6847;48.830;9.116;2023-08-20T10:40:53;98446.25;;;48.77;27.45
13553;BME280;6847;48.830;9.116;2023-08-20T10:43:28;98433.19;;;48.37;27.41
13553;BME280;6847;48.830;9.116;2023-08-20T10:46:13;98463.00;;;48.45;27.28
13553;BME280;6847;48.830;9.116;2023-08-20T10:48:44;98376.72;;;48.01;27.43
13553;BME280;6847;48.830;9.116;2023-08-20T10:51:16;98462.47;;;48.64;26.84
13553;BME280;6847;48.830;9.116;2023-08-20T10:53:48;98446.78;;;48.76;26.86
13553;BME280;6847;48.830;9.116;2023-08-20T10:56:17;98445.72;;;48.90;26.55
13553;BME280;6847;48.830;9.116;2023-08-20T10:58:47;98443.59;;;49.07;26.68
13553;BME280;6847;48.830;9.116;2023-08-20T11:01:22;98444.66;;;49.26;26.22
13553;BME280;6847;48.830;9.116;2023-08-20T11:03:53;98450.91;;;49.31;26.40
13553;BME280;6847;48.830;9.116;2023-08-20T11:06:34;98444.09;;;49.34;26.19
13553;BME280;6847;48.830;9.116;2023-08-20T11:09:03;98426.91;;;48.89;26.18
13553;BME280;6847;48.830;9.116;2023-08-20T11:11:37;98368.91;;;48.40;26.06
13553;BME280;6847;48.830;9.116;2023-08-20T11:14:05;98443.13;;;48.92;26.06
13553;BME280;6847;48.830;9.116;2023-08-20T11:16:34;98429.78;;;49.00;25.92
13553;BME280;6847;48.830;9.116;2023-08-20T11:19:11;98427.69;;;49.06;25.63
13553;BME280;6847;48.830;9.116;2023-08-20T11:21:40;98432.09;;;49.18;25.69
13553;BME280;6847;48.830;9.116;2023-08-20T11:24:08;98425.28;;;49.21;25.77
13553;BME280;6847;48.830;9.116;2023-08-20T11:26:38;98428.44;;;49.23;25.72
13553;BME280;6847;48.830;9.116;2023-08-20T11:29:06;98424.00;;;49.22;25.16
13553;BME280;6847;48.830;9.116;2023-08-20T11:31:33;98319.31;;;48.23;25.55
13553;BME280;6847;48.830;9.116;2023-08-20T11:34:04;98427.44;;;48.93;25.46
13553;BME280;6847;48.830;9.116;2023-08-20T11:36:34;98432.16;;;48.96;25.03
13553;BME280;6847;48.830;9.116;2023-08-20T11:39:03;98426.13;;;48.88;25.29
13553;BME280;6847;48.830;9.116;2023-08-20T11:41:31;98425.88;;;48.70;25.19
13553;BME280;6847;48.830;9.116;2023-08-20T11:43:57;98427.47;;;48.54;24.98
13553;BME280;6847;48.830;9.116;2023-08-20T11:46:24;98432.16;;;48.51;25.12
13553;BME280;6847;48.830;9.116;2023-08-20T11:48:58;98434.75;;;48.38;24.99
13553;BME280;6847;48.830;9.116;2023-08-20T11:51:25;98419.53;;;47.99;25.17
13553;BME280;6847;48.830;9.116;2023-08-20T11:53:57;98422.84;;;47.69;25.41
13553;BME280;6847;48.830;9.116;2023-08-20T11:56:24;98393.25;;;47.41;25.53
13553;BME280;6847;48.830;9.116;2023-08-20T11:58:50;98411.94;;;47.31;25.50
13553;BME280;6847;48.830;9.116;2023-08-20T12:01:17;98410.00;;;47.05;25.46
13553;BME280;6847;48.830;9.116;2023-08-20T12:03:45;98411.91;;;46.77;26.04
13553;BME280;6847;48.830;9.116;2023-08-20T12:06:18;98404.22;;;46.63;26.14
13553;BME280;6847;48.830;9.116;2023-08-20T12:08:47;98396.38;;;46.26;26.07
13553;BME280;6847;48.830;9.116;2023-08-20T12:11:16;98395.19;;;45.46;27.17
13553;BME280;6847;48.830;9.116;2023-08-20T12:13:43;98392.34;;;45.26;26.83
13553;BME280;6847;48.830;9.116;2023-08-20T12:16:10;98393.38;;;45.08;27.02
13553;BME280;6847;48.830;9.116;2023-08-20T12:18:37;98394.88;;;44.83;27.13
13553;BME280;6847;48.830;9.116;2023-08-20T12:21:03;98388.66;;;44.70;27.23
13553;BME280;6847;48.830;9.116;2023-08-20T12:23:30;98380.94;;;44.56;27.21
13553;BME280;6847;48.830;9.116;2023-08-20T12:25:58;98394.31;;;44.50;27.19
13553;BME280;6847;48.830;9.116;2023-08-20T12:28:26;98390.19;;;44.51;27.20
13553;BME280;6847;48.830;9.116;2023-08-20T12:30:57;98392.75;;;44.49;27.23
13553;BME280;6847;48.830;9.116;2023-08-20T12:33:24;98393.53;;;44.64;27.15
13553;BME280;6847;48.830;9.116;2023-08-20T12:35:54;98384.84;;;44.73;27.17
13553;BME280;6847;48.830;9.116;2023-08-20T12:38:21;98382.28;;;44.75;27.51
13553;BME280;6847;48.830;9.116;2023-08-20T12:40:48;98386.47;;;44.94;27.17
13553;BME280;6847;48.830;9.116;2023-08-20T12:43:17;98373.91;;;45.27;26.81
13553;BME280;6847;48.830;9.116;2023-08-20T12:45:46;98373.56;;;45.60;26.97
13553;BME280;6847;48.830;9.116;2023-08-20T12:48:13;98372.94;;;45.50;26.70
13553;BME280;6847;48.830;9.116;2023-08-20T12:50:41;98362.56;;;45.32;26.55
13553;BME280;6847;48.830;9.116;2023-08-20T12:53:09;98366.03;;;45.42;26.58
13553;BME280;6847;48.830;9.116;2023-08-20T12:55:42;98374.88;;;45.64;26.78
13553;BME280;6847;48.830;9.116;2023-08-20T12:58:11;98332.78;;;45.91;25.92
13553;BME280;6847;48.830;9.116;2023-08-20T13:00:38;98373.03;;;46.70;25.69
13553;BME280;6847;48.830;9.116;2023-08-20T13:03:10;98367.84;;;47.17;25.15
13553;BME280;6847;48.830;9.116;2023-08-20T13:05:38;98375.56;;;47.54;24.74
13553;BME280;6847;48.830;9.116;2023-08-20T13:08:07;98359.81;;;47.27;25.03
13553;BME280;6847;48.830;9.116;2023-08-20T13:10:36;98367.47;;;46.98;25.39
13553;BME280;6847;48.830;9.116;2023-08-20T13:13:04;98350.00;;;46.96;25.19
13553;BME280;6847;48.830;9.116;2023-08-20T13:15:31;98364.44;;;47.13;25.02
13553;BME280;6847;48.830;9.116;2023-08-20T13:18:00;98360.66;;;46.90;25.34